Home > Products > Valid Products > TAF

000
FTUS43 KJKL 302338
TAFJKL
TAF
KJKL 302338Z 3100/3124 VRB05KT P6SM SCT250=



000
FTUS43 KJKL 302338
TAFSME
TAF
KSME 302338Z 3100/3124 33007KT P6SM FEW040 SCT250
     FM310100 VRB04KT P6SM SCT250
     FM311000 00000KT 4SM BR SKC
     FM311300 VRB06KT P6SM SKC=



000
FTUS43 KJKL 302338
TAFLOZ
TAF
KLOZ 302338Z 3100/3124 34010KT P6SM FEW040 SCT250
     FM310100 VRB04KT P6SM SCT250
     FM311000 00000KT 4SM BR SKC
     FM311300 VRB06KT P6SM SKC=



000
FTUS43 KJKL 301729
TAFSME
TAF
KSME 301729Z 3018/3118 VRB06KT P6SM FEW040 SCT250
     FM311100 00000KT 4SM BR SKC
     FM311300 VRB06KT P6SM SKC=



000
FTUS43 KJKL 301729
TAFJKL
TAF
KJKL 301729Z 3018/3118 VRB06KT P6SM FEW040 SCT250=



000
FTUS43 KJKL 301729
TAFLOZ
TAF
KLOZ 301729Z 3018/3118 VRB06KT P6SM FEW040 SCT250
     FM310900 00000KT 4SM BR SKC
     FM311300 VRB06KT P6SM SKC=



000
FTUS43 KJKL 301317 AAA
TAFJKL
TAF AMD
KJKL 301317Z 3013/3112 00000KT P6SM SCT007 BKN045
     FM301400 VRB03KT P6SM SCT045
     FM301700 30004KT P6SM SKC=



000
FTUS43 KJKL 301317 AAA
TAFJKL
TAF AMD
KJKL 301317Z 3013/3112 00000KT P6SM SCT007 BKN045
     FM301400 VRB03KT P6SM SCT045
     FM301700 30004KT P6SM SKC=



000
FTUS43 KJKL 301128
TAFJKL
TAF
KJKL 301128Z 3012/3112 00000KT P6SM OVC006
     FM301400 VRB03KT P6SM SCT035
     FM301700 30004KT P6SM SKC=



000
FTUS43 KJKL 301128
TAFSME
TAF
KSME 301128Z 3012/3112 33004KT P6SM SCT035
     FM301700 33007KT P6SM SKC=



000
FTUS43 KJKL 301128
TAFLOZ
TAF
KLOZ 301128Z 3012/3112 VRB03KT P6SM SCT035
     FM301800 33007KT P6SM SKC=



000
FTUS43 KJKL 301128
TAFJKL
TAF
KJKL 301128Z 3012/3112 00000KT P6SM OVC006
     FM301400 VRB03KT P6SM SCT035
     FM301700 30004KT P6SM SKC=



000
FTUS43 KJKL 301128
TAFLOZ
TAF
KLOZ 301128Z 3012/3112 VRB03KT P6SM SCT035
     FM301800 33007KT P6SM SKC=



000
FTUS43 KJKL 301128
TAFSME
TAF
KSME 301128Z 3012/3112 33004KT P6SM SCT035
     FM301700 33007KT P6SM SKC=



000
FTUS43 KJKL 300951 AAC
TAFJKL
TAF AMD
KJKL 300951Z 3010/3106 00000KT P6SM BKN015 BKN250
      TEMPO 3010/3014 BKN006 OVC015
     FM301500 VRB03KT P6SM SCT035
     FM301700 30004KT P6SM SKC=



000
FTUS43 KJKL 300902 AAA
TAFSME
TAF AMD
KSME 300902Z 3009/3106 VRB03KT P6SM BKN015 BKN250
      TEMPO 3009/3013 3SM BR BKN005 OVC015
     FM301400 33004KT P6SM SCT035
     FM301600 33007KT P6SM SKC=



000
FTUS43 KJKL 300835 AAA
TAFLOZ
TAF AMD
KLOZ 300835Z 3009/3106 VRB03KT P6SM BKN015 BKN250
     FM301600 VRB03KT P6SM SCT035
     FM301800 33007KT P6SM SKC=



000
FTUS43 KJKL 300829 AAB
TAFJKL
TAF AMD
KJKL 300829Z 3008/3106 00000KT P6SM BKN015 BKN250
     FM301500 VRB03KT P6SM SCT035
     FM301700 30004KT P6SM SKC=



000
FTUS43 KJKL 300829 AAB
TAFJKL
TAF AMD
KJKL 300829Z 3008/3106 00000KT P6SM BKN015 BKN250
     FM301500 VRB03KT P6SM SCT035
     FM301700 30004KT P6SM SKC=



000
FTUS43 KJKL 300534
TAFJKL
TAF
KJKL 300534Z 3006/3106 00000KT P6SM BKN250
     FM300900 00000KT 2SM BR SCT006 BKN020
     FM301300 VRB03KT P6SM BKN035
     FM301700 30004KT P6SM SKC=



000
FTUS43 KJKL 300534
TAFLOZ
TAF
KLOZ 300534Z 3006/3106 VRB03KT P6SM BKN250
     FM301000 VRB03KT 5SM BR SCT020
     FM301300 33004KT P6SM SCT035
     FM301700 33007KT P6SM SKC=



000
FTUS43 KJKL 300534
TAFSME
TAF
KSME 300534Z 3006/3106 VRB03KT 6SM BR BKN250
     FM301000 VRB03KT 2SM BR SCT020
     FM301300 33004KT P6SM SCT035
     FM301500 33007KT P6SM SKC=



000
FTUS43 KJKL 300534
TAFLOZ
TAF
KLOZ 300534Z 3006/3106 VRB03KT P6SM BKN250
     FM301000 VRB03KT 5SM BR SCT020
     FM301300 33004KT P6SM SCT035
     FM301700 33007KT P6SM SKC=



000
FTUS43 KJKL 300534
TAFJKL
TAF
KJKL 300534Z 3006/3106 00000KT P6SM BKN250
     FM300900 00000KT 2SM BR SCT006 BKN020
     FM301300 VRB03KT P6SM BKN035
     FM301700 30004KT P6SM SKC=



000
FTUS43 KJKL 300534
TAFSME
TAF
KSME 300534Z 3006/3106 VRB03KT 6SM BR BKN250
     FM301000 VRB03KT 2SM BR SCT020
     FM301300 33004KT P6SM SCT035
     FM301500 33007KT P6SM SKC=



000
FTUS43 KJKL 300249 AAB
TAFSME
TAF AMD
KSME 300249Z 3003/3024 VRB06KT P6SM -RA VCTS SCT035CB BKN100
     FM300400 VRB03KT P6SM VCTS SCT035CB BKN100
     FM300800 34004KT 2SM BR VCSH OVC025
     FM301500 36007KT P6SM SCT030=



000
FTUS43 KJKL 300249 AAB
TAFJKL
TAF AMD
KJKL 300249Z 3003/3024 VRB03KT P6SM VCTS FEW035CB
     FM300900 34005KT 2SM BR VCSH OVC025
     FM301500 36006KT P6SM SCT030=



000
FTUS43 KJKL 300249 AAB
TAFLOZ
TAF AMD
KLOZ 300249Z 3003/3024 VRB03KT P6SM VCTS BKN035CB
     FM300900 34004KT 2SM BR VCSH OVC025
     FM301500 01006KT P6SM SCT030=



000
FTUS43 KJKL 300136 AAA
TAFLOZ
TAF AMD
KLOZ 300136Z 3002/3024 34010G20KT P6SM VCTS BKN035CB
     FM300230 VRB03KT P6SM VCTS SCT035 BKN050CB
     FM300500 VRB03KT 2SM BR VCSH OVC025
     FM301500 01006KT P6SM SCT030=



000
FTUS43 KJKL 300136 AAA
TAFLOZ
TAF AMD
KLOZ 300136Z 3002/3024 34010G20KT P6SM VCTS BKN035CB
     FM300230 VRB03KT P6SM VCTS SCT035 BKN050CB
     FM300500 VRB03KT 2SM BR VCSH OVC025
     FM301500 01006KT P6SM SCT030=



000
FTUS43 KJKL 300109 AAA
TAFSME
TAF AMD
KSME 300109Z 3001/3024 VRB06KT P6SM VCTS SCT035CB
     FM300130 34010G25KT 3SM TSRA BR BKN035CB
     FM300200 VRB03KT P6SM RA VCTS SCT035 BKN050CB
     FM300230 VRB03KT P6SM VCTS BKN035CB
     FM300500 VRB03KT 2SM BR VCSH OVC025
     FM301500 36007KT P6SM SCT030=



000
FTUS43 KJKL 300109 AAA
TAFSME
TAF AMD
KSME 300109Z 3001/3024 VRB06KT P6SM VCTS SCT035CB
     FM300130 34010G25KT 3SM TSRA BR BKN035CB
     FM300200 VRB03KT P6SM RA VCTS SCT035 BKN050CB
     FM300230 VRB03KT P6SM VCTS BKN035CB
     FM300500 VRB03KT 2SM BR VCSH OVC025
     FM301500 36007KT P6SM SCT030=



000
FTUS43 KJKL 300059 AAB
TAFJKL
TAF AMD
KJKL 300059Z 3001/3024 VRB03KT P6SM VCTS FEW035CB
     FM300500 VRB03KT 2SM BR VCSH OVC025
     FM301500 VRB06KT P6SM SCT030=



000
FTUS43 KJKL 300059 AAB
TAFJKL
TAF AMD
KJKL 300059Z 3001/3024 VRB03KT P6SM VCTS FEW035CB
     FM300500 VRB03KT 2SM BR VCSH OVC025
     FM301500 VRB06KT P6SM SCT030=



000
FTUS43 KJKL 292337
TAFSME
TAF
KSME 292337Z 3000/3024 VRB06KT P6SM VCTS SCT035CB
     FM300200 VRB03KT 5SM -TSRA BR BKN035CB
      TEMPO 3002/3003 30010G20KT 2SM +TSRA BR BKN025CB
     FM300300 VRB03KT P6SM VCTS SCT035 BKN050CB
     FM300400 VRB03KT 2SM BR VCSH OVC025
     FM301500 VRB06KT P6SM SCT030=



000
FTUS43 KJKL 292337
TAFLOZ
TAF
KLOZ 292337Z 3000/3024 VRB06KT P6SM VCTS SCT035CB
     FM300200 VRB03KT 5SM -TSRA BR BKN035CB
      TEMPO 3002/3003 30010G20KT 2SM +TSRA BR BKN025CB
     FM300300 VRB03KT P6SM VCTS SCT035 BKN050CB
     FM300400 VRB03KT 2SM BR VCSH OVC025
     FM301500 01006KT P6SM SCT030=



000
FTUS43 KJKL 292337
TAFJKL
TAF
KJKL 292337Z 3000/3024 VRB03KT P6SM VCTS FEW035CB
      TEMPO 3000/3003 30008G20KT 2SM +TSRA BR BKN025CB
     FM300500 VRB03KT 2SM BR VCSH OVC025
     FM301500 VRB06KT P6SM SCT030=



000
FTUS43 KJKL 291749 CCB
TAFJKL
TAF COR
KJKL 291749Z 2918/3018 VRB03KT P6SM BKN025
     FM291815 VRB03KT P6SM VCTS SCT025 BKN035CB
     FM300300 34003KT P6SM SCT250
     FM300400 VRB03KT 2SM BR VCSH OVC025
     FM301400 VRB03KT P6SM SCT030=



000
FTUS43 KJKL 291749 CCB
TAFJKL
TAF COR
KJKL 291749Z 2918/3018 VRB03KT P6SM BKN025
     FM291815 VRB03KT P6SM VCTS SCT025 BKN035CB
     FM300300 34003KT P6SM SCT250
     FM300400 VRB03KT 2SM BR VCSH OVC025
     FM301400 VRB03KT P6SM SCT030=



000
FTUS43 KJKL 291743 CCA
TAFSME
TAF COR
KSME 291743Z 2918/3018 VRB06KT 5SM BR BKN015
     FM291830 23006KT P6SM BKN025
     FM291930 30006KT P6SM VCTS SCT025 BKN035CB
     FM300500 VRB03KT 2SM BR VCSH OVC025
     FM301500 VRB06KT P6SM SCT030=



000
FTUS43 KJKL 291739
TAFJKL
TAF
KJKL 291739Z 2918/3018 VRB03KT P6SM BKN025
     FM291900 VRB03KT P6SM VCTS SCT025 BKN035CB
     FM300300 34003KT P6SM SCT250
     FM300400 VRB03KT 2SM BR VCSH OVC025
     FM301400 VRB03KT P6SM SCT030=



000
FTUS43 KJKL 291739
TAFSME
TAF
KSME 291739Z 2918/3018 VRB06KT P6SM BKN015
     FM291830 23006KT P6SM BKN025
     FM291930 30006KT P6SM VCTS SCT025 BKN035CB
     FM300500 VRB03KT 2SM BR VCSH OVC025
     FM301500 VRB06KT P6SM SCT030=



000
FTUS43 KJKL 291739
TAFLOZ
TAF
KLOZ 291739Z 2918/3018 VRB06KT P6SM BKN025
     FM292000 29006KT P6SM VCTS SCT025 BKN035CB
     FM300400 VRB03KT 2SM BR VCSH OVC025
     FM301500 01006KT P6SM SCT030=



000
FTUS43 KJKL 291454 CCA
TAFJKL
TAF COR
KJKL 291454Z 2915/3012 VRB03KT P6SM BKN008
     FM291515 VRB03KT P6SM BKN015
     FM291600 VRB03KT P6SM BKN025
     FM291800 VRB03KT P6SM VCTS SCT035CB
     FM300300 34003KT P6SM SCT250=



000
FTUS43 KJKL 291454 CCA
TAFJKL
TAF COR
KJKL 291454Z 2915/3012 VRB03KT P6SM BKN008
     FM291515 VRB03KT P6SM BKN015
     FM291600 VRB03KT P6SM BKN025
     FM291800 VRB03KT P6SM VCTS SCT035CB
     FM300300 34003KT P6SM SCT250=



000
FTUS43 KJKL 291453 AAB
TAFSME
TAF AMD
KSME 291453Z 2915/3012 VRB03KT P6SM BKN008
     FM291530 VRB03KT P6SM BKN015
     FM291700 VRB03KT P6SM VCTS BKN025CB
     FM291900 30003KT P6SM VCTS SCT035CB
     FM300400 00000KT P6SM SCT250=



000
FTUS43 KJKL 291453 AAB
TAFSME
TAF AMD
KSME 291453Z 2915/3012 VRB03KT P6SM BKN008
     FM291530 VRB03KT P6SM BKN015
     FM291700 VRB03KT P6SM VCTS BKN025CB
     FM291900 30003KT P6SM VCTS SCT035CB
     FM300400 00000KT P6SM SCT250=



000
FTUS43 KJKL 291451 AAB
TAFLOZ
TAF AMD
KLOZ 291451Z 2915/3012 VRB03KT 5SM BR OVC005
     FM291530 00000KT 6SM BR BKN008
     FM291600 VRB03KT P6SM BKN015
     FM291700 VRB03KT P6SM VCTS BKN025CB
     FM291900 30003KT P6SM VCTS SCT035CB
     FM300400 00000KT P6SM SCT250=



000
FTUS43 KJKL 291448 AAB
TAFJKL
TAF AMD
KJKL 291448Z 2915/3012 VRB03KT P6SM BKN008
     FM291515 VRB03KT P6SM BKN015
     FM291600 VRB03KT P6SM VCTS BKN025CB
     FM291800 VRB03KT P6SM VCTS SCT035CB
     FM300300 34003KT P6SM SCT250=



000
FTUS43 KJKL 291315 AAB
TAFJKL
TAF AMD
KJKL 291315Z 2913/3012 VRB03KT 6SM BR OVC003
     FM291400 00000KT P6SM BKN008
     FM291430 VRB03KT P6SM BKN015
     FM291600 VRB03KT P6SM VCTS BKN025CB
     FM291800 VRB03KT P6SM VCTS SCT035CB
     FM300300 34003KT P6SM SCT250=



000
FTUS43 KJKL 291315 AAB
TAFJKL
TAF AMD
KJKL 291315Z 2913/3012 VRB03KT 6SM BR OVC003
     FM291400 00000KT P6SM BKN008
     FM291430 VRB03KT P6SM BKN015
     FM291600 VRB03KT P6SM VCTS BKN025CB
     FM291800 VRB03KT P6SM VCTS SCT035CB
     FM300300 34003KT P6SM SCT250=



000
FTUS43 KJKL 291314 AAA
TAFSME
TAF AMD
KSME 291314Z 2913/3012 00000KT 3SM BR OVC003
     FM291400 VRB03KT P6SM BKN008
     FM291430 VRB03KT P6SM BKN015
     FM291700 VRB03KT P6SM VCTS BKN025CB
     FM291900 30003KT P6SM VCTS SCT035CB
     FM300400 00000KT P6SM SCT250=



000
FTUS43 KJKL 291314 AAA
TAFSME
TAF AMD
KSME 291314Z 2913/3012 00000KT 3SM BR OVC003
     FM291400 VRB03KT P6SM BKN008
     FM291430 VRB03KT P6SM BKN015
     FM291700 VRB03KT P6SM VCTS BKN025CB
     FM291900 30003KT P6SM VCTS SCT035CB
     FM300400 00000KT P6SM SCT250=



000
FTUS43 KJKL 291221 AAA
TAFLOZ
TAF AMD
KLOZ 291221Z 2912/3012 00000KT 3SM BR OVC002
     FM291330 00000KT 6SM BR BKN008
     FM291400 VRB03KT P6SM BKN015
     FM291700 VRB03KT P6SM VCTS BKN025CB
     FM291900 30003KT P6SM VCTS SCT035CB
     FM300400 00000KT P6SM SCT250=



000
FTUS43 KJKL 291221 AAA
TAFLOZ
TAF AMD
KLOZ 291221Z 2912/3012 00000KT 3SM BR OVC002
     FM291330 00000KT 6SM BR BKN008
     FM291400 VRB03KT P6SM BKN015
     FM291700 VRB03KT P6SM VCTS BKN025CB
     FM291900 30003KT P6SM VCTS SCT035CB
     FM300400 00000KT P6SM SCT250=



000
FTUS43 KJKL 291141
TAFJKL
TAF
KJKL 291141Z 2912/3012 VRB03KT 1SM BR OVC003
     FM291300 00000KT 3SM BR BKN008
     FM291400 VRB03KT P6SM BKN015
     FM291600 VRB03KT P6SM VCTS BKN025CB
     FM291800 VRB03KT P6SM VCTS SCT035CB
     FM300300 34003KT P6SM SCT250=



000
FTUS43 KJKL 291141
TAFSME
TAF
KSME 291141Z 2912/3012 00000KT 5SM BR OVC003
     FM291300 00000KT P6SM BKN008
     FM291400 VRB03KT P6SM BKN015
     FM291700 VRB03KT P6SM VCTS BKN025CB
     FM291900 30003KT P6SM VCTS SCT035CB
     FM300400 00000KT P6SM SCT250=



000
FTUS43 KJKL 291141
TAFLOZ
TAF
KLOZ 291141Z 2912/3012 00000KT 3SM BR OVC003
     FM291300 00000KT 6SM BR BKN008
     FM291400 VRB03KT P6SM BKN015
     FM291700 VRB03KT P6SM VCTS BKN025CB
     FM291900 30003KT P6SM VCTS SCT035CB
     FM300400 00000KT P6SM SCT250=



000
FTUS43 KJKL 291141
TAFJKL
TAF
KJKL 291141Z 2912/3012 VRB03KT 1SM BR OVC003
     FM291300 00000KT 3SM BR BKN008
     FM291400 VRB03KT P6SM BKN015
     FM291600 VRB03KT P6SM VCTS BKN025CB
     FM291800 VRB03KT P6SM VCTS SCT035CB
     FM300300 34003KT P6SM SCT250=



000
FTUS43 KJKL 291141
TAFSME
TAF
KSME 291141Z 2912/3012 00000KT 5SM BR OVC003
     FM291300 00000KT P6SM BKN008
     FM291400 VRB03KT P6SM BKN015
     FM291700 VRB03KT P6SM VCTS BKN025CB
     FM291900 30003KT P6SM VCTS SCT035CB
     FM300400 00000KT P6SM SCT250=



000
FTUS43 KJKL 291141
TAFLOZ
TAF
KLOZ 291141Z 2912/3012 00000KT 3SM BR OVC003
     FM291300 00000KT 6SM BR BKN008
     FM291400 VRB03KT P6SM BKN015
     FM291700 VRB03KT P6SM VCTS BKN025CB
     FM291900 30003KT P6SM VCTS SCT035CB
     FM300400 00000KT P6SM SCT250=



000
FTUS43 KJKL 290721 AAA
TAFSME
TAF AMD
KSME 290721Z 2907/3006 00000KT 1/2SM FG VV001
      TEMPO 2907/2911 2SM BR SCT003
     FM291230 00000KT 2SM BR SCT006
     FM291330 VRB03KT P6SM SCT015
     FM291500 VRB03KT P6SM VCTS BKN020CB
     FM291800 32003KT P6SM VCTS SCT035CB
     FM300100 00000KT P6SM SCT250=



000
FTUS43 KJKL 290719 AAB
TAFJKL
TAF AMD
KJKL 290719Z 2907/3006 VRB03KT 1/2SM FG VV001
      TEMPO 2907/2911 2SM BR SCT003
     FM291230 00000KT 2SM BR SCT006
     FM291330 VRB03KT P6SM SCT015
     FM291500 VRB03KT P6SM VCTS BKN020CB
     FM291800 VRB03KT P6SM VCTS SCT035CB
     FM300000 34003KT P6SM SCT250=



000
FTUS43 KJKL 290719 AAB
TAFJKL
TAF AMD
KJKL 290719Z 2907/3006 VRB03KT 1/2SM FG VV001
      TEMPO 2907/2911 2SM BR SCT003
     FM291230 00000KT 2SM BR SCT006
     FM291330 VRB03KT P6SM SCT015
     FM291500 VRB03KT P6SM VCTS BKN020CB
     FM291800 VRB03KT P6SM VCTS SCT035CB
     FM300000 34003KT P6SM SCT250=



000
FTUS43 KJKL 290715 AAA
TAFLOZ
TAF AMD
KLOZ 290715Z 2907/3006 00000KT 1/2SM FG VV001
      TEMPO 2907/2911 3SM BR SCT003
     FM291230 00000KT 2SM BR SCT006
     FM291330 VRB03KT P6SM SCT015
     FM291500 VRB03KT P6SM VCTS BKN020CB
     FM291800 30003KT P6SM VCTS SCT035CB
     FM300100 00000KT P6SM SCT250=



000
FTUS43 KJKL 290522
TAFJKL
TAF
KJKL 290522Z 2906/3006 VRB03KT 3SM BR FEW002
     FM290900 00000KT 1/2SM FG BKN002
     FM291230 00000KT 2SM BR SCT006
     FM291330 VRB03KT P6SM SCT015
     FM291500 VRB03KT P6SM VCTS BKN020CB
     FM291800 VRB03KT P6SM VCTS SCT035CB
     FM300000 34003KT P6SM SCT250=



000
FTUS43 KJKL 290522
TAFLOZ
TAF
KLOZ 290522Z 2906/3006 00000KT P6SM SKC
     FM290700 00000KT 5SM BR SKC
     FM290900 00000KT 1SM BR BKN002
     FM291230 00000KT 2SM BR SCT006
     FM291330 VRB03KT P6SM SCT015
     FM291500 VRB03KT P6SM VCTS BKN020CB
     FM291800 30003KT P6SM VCTS SCT035CB
     FM300100 00000KT P6SM SCT250=



000
FTUS43 KJKL 290522
TAFSME
TAF
KSME 290522Z 2906/3006 VRB03KT 3SM BR FEW002
     FM290900 00000KT 1/2SM FG BKN002
     FM291230 00000KT 2SM BR SCT006
     FM291330 VRB03KT P6SM SCT015
     FM291500 VRB03KT P6SM VCTS BKN020CB
     FM291800 32003KT P6SM VCTS SCT035CB
     FM300100 00000KT P6SM SCT250=



000
FTUS43 KJKL 290522
TAFLOZ
TAF
KLOZ 290522Z 2906/3006 00000KT P6SM SKC
     FM290700 00000KT 5SM BR SKC
     FM290900 00000KT 1SM BR BKN002
     FM291230 00000KT 2SM BR SCT006
     FM291330 VRB03KT P6SM SCT015
     FM291500 VRB03KT P6SM VCTS BKN020CB
     FM291800 30003KT P6SM VCTS SCT035CB
     FM300100 00000KT P6SM SCT250=



000
FTUS43 KJKL 290522
TAFJKL
TAF
KJKL 290522Z 2906/3006 VRB03KT 3SM BR FEW002
     FM290900 00000KT 1/2SM FG BKN002
     FM291230 00000KT 2SM BR SCT006
     FM291330 VRB03KT P6SM SCT015
     FM291500 VRB03KT P6SM VCTS BKN020CB
     FM291800 VRB03KT P6SM VCTS SCT035CB
     FM300000 34003KT P6SM SCT250=



000
FTUS43 KJKL 290522
TAFSME
TAF
KSME 290522Z 2906/3006 VRB03KT 3SM BR FEW002
     FM290900 00000KT 1/2SM FG BKN002
     FM291230 00000KT 2SM BR SCT006
     FM291330 VRB03KT P6SM SCT015
     FM291500 VRB03KT P6SM VCTS BKN020CB
     FM291800 32003KT P6SM VCTS SCT035CB
     FM300100 00000KT P6SM SCT250=



000
FTUS43 KJKL 290243 AAA
TAFJKL
TAF AMD
KJKL 290243Z 2903/2924 VRB03KT 3SM BR FEW002
     FM290900 00000KT 1/2SM FG BKN002
     FM291300 VRB05KT P6SM BKN040=



000
FTUS43 KJKL 282331
TAFLOZ
TAF
KLOZ 282331Z 2900/2924 VRB04KT P6SM VCTS SCT050CB
     FM290100 VRB04KT 5SM -TSRA BR BKN035CB
     FM290130 VRB03KT 4SM BR SCT060
     FM290400 00000KT 3SM BR SCT060
     FM290800 00000KT 1/2SM FG BKN002
     FM291300 VRB05KT P6SM BKN040=



000
FTUS43 KJKL 282331
TAFSME
TAF
KSME 282331Z 2900/2924 35010G17KT 2SM +TSRA SCT010 BKN035CB
     FM290100 VRB04KT 5SM BR SCT060
     FM290300 00000KT 3SM BR SCT060
     FM290700 00000KT 1/2SM FG BKN002
     FM291300 VRB05KT P6SM BKN040=



000
FTUS43 KJKL 282331
TAFJKL
TAF
KJKL 282331Z 2900/2924 VRB03KT P6SM FEW100
     FM290400 00000KT 4SM BR FEW100
     FM290900 00000KT 1/2SM FG BKN002
     FM291300 VRB05KT P6SM BKN040=



000
FTUS43 KJKL 282331
TAFLOZ
TAF
KLOZ 282331Z 2900/2924 VRB04KT P6SM VCTS SCT050CB
     FM290100 VRB04KT 5SM -TSRA BR BKN035CB
     FM290130 VRB03KT 4SM BR SCT060
     FM290400 00000KT 3SM BR SCT060
     FM290800 00000KT 1/2SM FG BKN002
     FM291300 VRB05KT P6SM BKN040=



000
FTUS43 KJKL 282331
TAFSME
TAF
KSME 282331Z 2900/2924 35010G17KT 2SM +TSRA SCT010 BKN035CB
     FM290100 VRB04KT 5SM BR SCT060
     FM290300 00000KT 3SM BR SCT060
     FM290700 00000KT 1/2SM FG BKN002
     FM291300 VRB05KT P6SM BKN040=



000
FTUS43 KJKL 282331
TAFJKL
TAF
KJKL 282331Z 2900/2924 VRB03KT P6SM FEW100
     FM290400 00000KT 4SM BR FEW100
     FM290900 00000KT 1/2SM FG BKN002
     FM291300 VRB05KT P6SM BKN040=



000
FTUS43 KJKL 281720
TAFSME
TAF
KSME 281720Z 2818/2918 VRB03KT P6SM SCT030
     FM281830 VRB06KT P6SM VCTS SCT030CB
     FM290100 VRB04KT 5SM BR SCT030
     FM290400 00000KT 3SM BR SCT030
     FM290800 00000KT 1/2SM FG BKN002
     FM291400 VRB05KT P6SM BKN040=



000
FTUS43 KJKL 281720
TAFJKL
TAF
KJKL 281720Z 2818/2918 VRB03KT P6SM SCT030
     FM281900 VRB06KT P6SM VCTS SCT030CB
     FM290100 VRB04KT P6SM SCT030
     FM290400 00000KT 4SM BR SCT030
     FM290800 00000KT 1/2SM FG BKN002
     FM291400 VRB05KT P6SM BKN040=



000
FTUS43 KJKL 281720
TAFLOZ
TAF
KLOZ 281720Z 2818/2918 22007KT P6SM SCT030 SCT060
     FM281900 VRB06KT P6SM VCTS SCT030CB SCT060
     FM290100 VRB04KT 5SM BR SCT030
     FM290400 00000KT 3SM BR SCT030
     FM290800 00000KT 1/2SM FG BKN002
     FM291400 VRB05KT P6SM BKN040=



000
FTUS43 KJKL 281316 AAC
TAFJKL
TAF AMD
KJKL 281316Z 2813/2912 VRB03KT P6SM SCT300
     FM281700 VRB03KT P6SM VCTS SCT040CB SCT300
     FM282300 00000KT P6SM SCT040
     FM290500 00000KT 3SM BR SCT040
     FM290900 00000KT 1/2SM FG BKN002=



000
FTUS43 KJKL 281316 AAC
TAFJKL
TAF AMD
KJKL 281316Z 2813/2912 VRB03KT P6SM SCT300
     FM281700 VRB03KT P6SM VCTS SCT040CB SCT300
     FM282300 00000KT P6SM SCT040
     FM290500 00000KT 3SM BR SCT040
     FM290900 00000KT 1/2SM FG BKN002=



000
FTUS43 KJKL 281249 AAB
TAFLOZ
TAF AMD
KLOZ 281249Z 2813/2912 VRB03KT P6SM SCT300
     FM281700 VRB03KT P6SM VCTS SCT040CB SCT300
     FM282300 00000KT P6SM SCT040
     FM290500 00000KT 3SM BR SCT040
     FM290900 00000KT 1/2SM FG BKN002=



000
FTUS43 KJKL 281249 AAB
TAFLOZ
TAF AMD
KLOZ 281249Z 2813/2912 VRB03KT P6SM SCT300
     FM281700 VRB03KT P6SM VCTS SCT040CB SCT300
     FM282300 00000KT P6SM SCT040
     FM290500 00000KT 3SM BR SCT040
     FM290900 00000KT 1/2SM FG BKN002=



000
FTUS43 KJKL 281201 AAA
TAFLOZ
TAF AMD
KLOZ 281201Z 2812/2912 00000KT 1/4SM FG VV001
      TEMPO 2812/2813 3SM BR BKN005 BKN300
     FM281300 00000KT 3SM BR BKN005 BKN300
     FM281400 VRB03KT P6SM SCT300
     FM281700 VRB03KT P6SM VCTS SCT040CB SCT300
     FM282300 00000KT P6SM SCT040
     FM290500 00000KT 3SM BR SCT040
     FM290900 00000KT 1/2SM FG BKN002=



000
FTUS43 KJKL 281201 AAA
TAFLOZ
TAF AMD
KLOZ 281201Z 2812/2912 00000KT 1/4SM FG VV001
      TEMPO 2812/2813 3SM BR BKN005 BKN300
     FM281300 00000KT 3SM BR BKN005 BKN300
     FM281400 VRB03KT P6SM SCT300
     FM281700 VRB03KT P6SM VCTS SCT040CB SCT300
     FM282300 00000KT P6SM SCT040
     FM290500 00000KT 3SM BR SCT040
     FM290900 00000KT 1/2SM FG BKN002=



000
FTUS43 KJKL 281156 AAA
TAFJKL
TAF AMD
KJKL 281156Z 2812/2912 00000KT 1/4SM FG VV001
      TEMPO 2812/2813 3SM BR BKN005 BKN300
     FM281300 00000KT 3SM BR BKN005 BKN300
     FM281400 VRB03KT P6SM SCT300
     FM281700 VRB03KT P6SM VCTS SCT040CB SCT300
     FM282300 00000KT P6SM SCT040
     FM290500 00000KT 3SM BR SCT040
     FM290900 00000KT 1/2SM FG BKN002=



000
FTUS43 KJKL 281156 AAA
TAFJKL
TAF AMD
KJKL 281156Z 2812/2912 00000KT 1/4SM FG VV001
      TEMPO 2812/2813 3SM BR BKN005 BKN300
     FM281300 00000KT 3SM BR BKN005 BKN300
     FM281400 VRB03KT P6SM SCT300
     FM281700 VRB03KT P6SM VCTS SCT040CB SCT300
     FM282300 00000KT P6SM SCT040
     FM290500 00000KT 3SM BR SCT040
     FM290900 00000KT 1/2SM FG BKN002=



000
FTUS43 KJKL 281134
TAFSME
TAF
KSME 281134Z 2812/2912 00000KT 3SM BR SCT300
     FM281300 VRB03KT P6SM SCT300
     FM281700 VRB03KT P6SM VCTS BKN040CB BKN300
     FM282300 00000KT P6SM SCT040
     FM290500 00000KT 3SM BR SCT040
     FM290900 00000KT 1/2SM FG BKN002=



000
FTUS43 KJKL 281134
TAFLOZ
TAF
KLOZ 281134Z 2812/2912 00000KT 2SM BR SCT005 SCT300
     FM281300 VRB03KT P6SM SCT300
     FM281700 VRB03KT P6SM VCTS SCT040CB SCT300
     FM282300 00000KT P6SM SCT040
     FM290500 00000KT 3SM BR SCT040
     FM290900 00000KT 1/2SM FG BKN002=



000
FTUS43 KJKL 281134
TAFJKL
TAF
KJKL 281134Z 2812/2912 00000KT 1SM BR SCT005 SCT300
     FM281300 VRB03KT P6SM SCT300
     FM281700 VRB03KT P6SM VCTS SCT040CB SCT300
     FM282300 00000KT P6SM SCT040
     FM290500 00000KT 3SM BR SCT040
     FM290900 00000KT 1/2SM FG BKN002=



000
FTUS43 KJKL 281134
TAFLOZ
TAF
KLOZ 281134Z 2812/2912 00000KT 2SM BR SCT005 SCT300
     FM281300 VRB03KT P6SM SCT300
     FM281700 VRB03KT P6SM VCTS SCT040CB SCT300
     FM282300 00000KT P6SM SCT040
     FM290500 00000KT 3SM BR SCT040
     FM290900 00000KT 1/2SM FG BKN002=



000
FTUS43 KJKL 281134
TAFSME
TAF
KSME 281134Z 2812/2912 00000KT 3SM BR SCT300
     FM281300 VRB03KT P6SM SCT300
     FM281700 VRB03KT P6SM VCTS BKN040CB BKN300
     FM282300 00000KT P6SM SCT040
     FM290500 00000KT 3SM BR SCT040
     FM290900 00000KT 1/2SM FG BKN002=



000
FTUS43 KJKL 281134
TAFJKL
TAF
KJKL 281134Z 2812/2912 00000KT 1SM BR SCT005 SCT300
     FM281300 VRB03KT P6SM SCT300
     FM281700 VRB03KT P6SM VCTS SCT040CB SCT300
     FM282300 00000KT P6SM SCT040
     FM290500 00000KT 3SM BR SCT040
     FM290900 00000KT 1/2SM FG BKN002=



000
FTUS43 KJKL 280533
TAFJKL
TAF
KJKL 280533Z 2806/2906 00000KT 2SM BR FEW025 SCT300
      TEMPO 2808/2812 1/2SM FG BKN003
     FM281300 VRB03KT P6SM SCT300
     FM281700 VRB03KT P6SM VCTS SCT040CB SCT300
     FM282300 00000KT P6SM SKC=



000
FTUS43 KJKL 280533
TAFLOZ
TAF
KLOZ 280533Z 2806/2906 00000KT 2SM BR FEW025 SCT300
      TEMPO 2808/2812 1/2SM FG BKN003
     FM281300 VRB03KT P6SM SCT300
     FM281700 VRB03KT P6SM VCTS SCT040CB SCT300
     FM282300 00000KT P6SM SKC=



000
FTUS43 KJKL 280533
TAFSME
TAF
KSME 280533Z 2806/2906 00000KT 3SM BR FEW025 SCT300
     FM280800 00000KT 1SM BR FEW025 SCT300
      TEMPO 2809/2812 1/4SM FG BKN002
     FM281300 VRB03KT P6SM SCT300
     FM281700 VRB03KT P6SM VCTS BKN040CB BKN300
     FM282300 00000KT P6SM SKC=



    US Dept of Commerce
    National Oceanic and Atmospheric Administration
    National Weather Service
    1325 East West Highway
    Silver Spring, MD 20910
    Page Author: NWS Internet Services Team
Disclaimer
Information Quality
Credits
Glossary
Privacy Policy
Freedom of Information Act (FOIA)
About Us
Career Opportunities